createdAt,value
2023-05-21T00:01:42.344Z,16.00
2023-05-21T00:04:13.100Z,15.97
2023-05-21T00:06:41.623Z,15.91
2023-05-21T00:09:10.652Z,15.91
2023-05-21T00:11:39.134Z,15.82
2023-05-21T00:14:08.982Z,15.79
2023-05-21T00:16:37.633Z,15.78
2023-05-21T00:19:06.331Z,15.74
2023-05-21T00:21:34.882Z,15.73
2023-05-21T00:24:03.410Z,15.75
2023-05-21T00:26:31.886Z,15.78
2023-05-21T00:29:00.802Z,15.81
2023-05-21T00:31:30.719Z,15.80
2023-05-21T00:33:59.262Z,15.80
2023-05-21T00:36:27.715Z,15.79
2023-05-21T00:38:56.225Z,15.72
2023-05-21T00:41:25.951Z,15.71
2023-05-21T00:43:54.541Z,15.70
2023-05-21T00:46:24.151Z,15.68
2023-05-21T00:48:54.139Z,15.62
2023-05-21T00:51:22.671Z,15.58
2023-05-21T00:53:52.573Z,15.53
2023-05-21T00:56:21.973Z,15.50
2023-05-21T00:58:51.968Z,15.49
2023-05-21T01:01:20.699Z,15.45
2023-05-21T01:03:49.240Z,15.41
2023-05-21T01:06:20.729Z,15.29
2023-05-21T01:08:50.850Z,15.27
2023-05-21T01:11:20.083Z,15.27
2023-05-21T01:13:49.829Z,15.29
2023-05-21T01:16:18.688Z,15.26
2023-05-21T01:18:47.840Z,15.28
2023-05-21T01:21:17.610Z,15.31
2023-05-21T01:23:47.558Z,15.23
2023-05-21T01:26:16.172Z,15.24
2023-05-21T01:28:44.657Z,15.24
2023-05-21T01:31:25.156Z,15.26
2023-05-21T01:33:56.994Z,15.25
2023-05-21T01:36:28.802Z,15.25
2023-05-21T01:39:03.998Z,15.24
2023-05-21T01:41:35.841Z,15.24
2023-05-21T01:44:07.195Z,15.19
2023-05-21T01:46:37.122Z,15.19
2023-05-21T01:49:07.453Z,15.18
2023-05-21T01:51:36.429Z,15.19
2023-05-21T01:54:06.300Z,15.15
2023-05-21T01:56:37.131Z,15.17
2023-05-21T01:59:05.925Z,15.12
2023-05-21T02:01:34.705Z,15.04
2023-05-21T02:04:03.615Z,15.03
2023-05-21T02:06:32.352Z,15.06
2023-05-21T02:09:00.819Z,15.07
2023-05-21T02:11:30.631Z,15.08
2023-05-21T02:13:59.094Z,15.03
2023-05-21T02:16:27.709Z,14.95
2023-05-21T02:18:57.572Z,14.91
2023-05-21T02:21:26.265Z,14.91
2023-05-21T02:23:54.730Z,14.93
2023-05-21T02:26:23.506Z,14.90
2023-05-21T02:28:54.052Z,14.86
2023-05-21T02:31:22.511Z,14.88
2023-05-21T02:33:51.046Z,14.90
2023-05-21T02:36:19.543Z,14.90
2023-05-21T02:38:48.090Z,14.91
2023-05-21T02:41:16.563Z,14.86
2023-05-21T02:43:45.027Z,14.86
2023-05-21T02:46:14.936Z,14.88
2023-05-21T02:48:43.433Z,14.88
2023-05-21T02:51:11.902Z,14.88
2023-05-21T02:53:40.548Z,14.87
2023-05-21T02:56:09.135Z,14.88
2023-05-21T02:58:37.638Z,14.87
2023-05-21T03:01:06.181Z,14.87
2023-05-21T03:03:36.372Z,14.83
2023-05-21T03:06:05.121Z,14.79
2023-05-21T03:08:33.626Z,14.76
2023-05-21T03:11:02.076Z,14.75
2023-05-21T03:13:30.606Z,14.74
2023-05-21T03:15:59.122Z,14.76
2023-05-21T03:18:27.628Z,14.75
2023-05-21T03:20:59.057Z,14.76
2023-05-21T03:23:27.971Z,14.77
2023-05-21T03:25:56.454Z,14.76
2023-05-21T03:28:24.918Z,14.77
2023-05-21T03:30:53.599Z,14.77
2023-05-21T03:33:22.934Z,14.77
2023-05-21T03:35:51.449Z,14.76
2023-05-21T03:38:21.306Z,14.77
2023-05-21T03:40:50.450Z,14.78
2023-05-21T03:43:18.915Z,14.78
2023-05-21T03:45:47.391Z,14.79
2023-05-21T03:48:15.945Z,14.79
2023-05-21T03:50:44.409Z,14.81
2023-05-21T03:53:13.862Z,14.81
2023-05-21T03:55:43.687Z,14.82
2023-05-21T03:58:12.167Z,14.84
2023-05-21T04:00:42.432Z,14.86
2023-05-21T04:03:11.819Z,14.89
2023-05-21T04:05:40.537Z,14.89
2023-05-21T04:08:09.070Z,14.91
2023-05-21T04:10:37.513Z,14.92
2023-05-21T04:13:07.432Z,14.94
2023-05-21T04:15:36.140Z,14.96
2023-05-21T04:18:05.155Z,15.01
2023-05-21T04:20:33.717Z,15.01
2023-05-21T04:23:03.105Z,15.05
2023-05-21T04:25:31.618Z,15.08
2023-05-21T04:28:00.075Z,15.10
2023-05-21T04:30:30.381Z,15.12
2023-05-21T04:33:00.272Z,15.15
2023-05-21T04:35:28.998Z,15.17
2023-05-21T04:37:57.504Z,15.21
2023-05-21T04:40:26.808Z,15.23
2023-05-21T04:42:55.358Z,15.25
2023-05-21T04:45:24.653Z,15.29
2023-05-21T04:47:54.583Z,15.35
2023-05-21T04:50:23.276Z,15.37
2023-05-21T04:52:51.834Z,15.40
2023-05-21T04:55:21.178Z,15.45
2023-05-21T04:57:49.651Z,15.46
2023-05-21T05:00:18.734Z,15.51
2023-05-21T05:02:47.311Z,15.54
2023-05-21T05:05:17.240Z,15.62
2023-05-21T05:07:45.819Z,15.63
2023-05-21T05:10:14.370Z,15.68
2023-05-21T05:12:42.834Z,15.72
2023-05-21T05:15:11.954Z,15.77
2023-05-21T05:17:40.806Z,15.84
2023-05-21T05:20:10.757Z,15.90
2023-05-21T05:22:40.706Z,15.95
2023-05-21T05:25:09.904Z,15.98
2023-05-21T05:27:38.727Z,15.98
2023-05-21T05:30:08.739Z,15.99
2023-05-21T05:32:37.184Z,16.04
2023-05-21T05:35:06.752Z,16.10
2023-05-21T05:37:35.226Z,16.16
2023-05-21T05:40:05.805Z,16.21
2023-05-21T05:42:34.341Z,16.29
2023-05-21T05:45:02.804Z,16.37
2023-05-21T05:47:31.533Z,16.43
2023-05-21T05:50:00.050Z,16.50
2023-05-21T05:52:28.495Z,16.55
2023-05-21T05:54:56.959Z,16.61
2023-05-21T05:57:26.790Z,16.69
2023-05-21T05:59:55.259Z,16.75
2023-05-21T06:02:23.818Z,16.83
2023-05-21T06:04:52.448Z,16.90
2023-05-21T06:07:20.912Z,16.95
2023-05-21T06:09:49.367Z,17.04
2023-05-21T06:12:17.845Z,17.07
2023-05-21T06:14:49.050Z,17.11
2023-05-21T06:17:17.568Z,17.15
2023-05-21T06:19:46.235Z,17.18
2023-05-21T06:22:14.706Z,17.24
2023-05-21T06:24:43.197Z,17.26
2023-05-21T06:27:11.889Z,17.30
2023-05-21T06:29:40.949Z,17.31
2023-05-21T06:32:10.949Z,17.32
2023-05-21T06:34:39.453Z,17.37
2023-05-21T06:37:07.872Z,17.41
2023-05-21T06:39:36.366Z,17.45
2023-05-21T06:42:04.981Z,17.50
2023-05-21T06:44:33.436Z,17.54
2023-05-21T06:47:01.920Z,17.57
2023-05-21T06:49:33.604Z,17.59
2023-05-21T06:52:02.493Z,17.62
2023-05-21T06:54:30.982Z,17.64
2023-05-21T06:56:59.624Z,17.66
2023-05-21T06:59:28.097Z,17.68
2023-05-21T07:01:56.559Z,17.71
2023-05-21T07:04:25.221Z,17.74
2023-05-21T07:06:55.051Z,17.75
2023-05-21T07:09:23.519Z,17.78
2023-05-21T07:11:53.002Z,17.79
2023-05-21T07:14:21.462Z,17.80
2023-05-21T07:16:50.017Z,17.84
2023-05-21T07:19:18.598Z,17.90
2023-05-21T07:21:47.511Z,17.95
2023-05-21T07:24:17.353Z,18.00
2023-05-21T07:26:45.882Z,18.08
2023-05-21T07:29:14.384Z,18.16
2023-05-21T07:31:42.967Z,18.22
2023-05-21T07:34:11.471Z,18.32
2023-05-21T07:36:39.970Z,18.39
2023-05-21T07:39:08.445Z,18.45
2023-05-21T07:41:38.271Z,18.53
2023-05-21T07:44:06.727Z,18.63
2023-05-21T07:46:35.241Z,18.73
2023-05-21T07:49:03.828Z,18.82
2023-05-21T07:51:32.759Z,18.89
2023-05-21T07:54:01.343Z,18.98
2023-05-21T07:56:29.945Z,19.09
2023-05-21T07:58:59.759Z,19.19
2023-05-21T08:01:29.640Z,19.34
2023-05-21T08:04:00.719Z,19.37
2023-05-21T08:06:29.416Z,19.51
2023-05-21T08:08:57.886Z,19.60
2023-05-21T08:11:27.006Z,19.70
2023-05-21T08:13:55.602Z,19.77
2023-05-21T08:16:25.497Z,19.91
2023-05-21T08:18:54.095Z,20.02
2023-05-21T08:21:22.674Z,20.09
2023-05-21T08:23:54.122Z,20.16
2023-05-21T08:26:22.553Z,20.25
2023-05-21T08:28:51.237Z,20.33
2023-05-21T08:31:19.861Z,20.41
2023-05-21T08:33:53.236Z,20.50
2023-05-21T08:36:21.876Z,20.58
2023-05-21T08:38:50.786Z,20.68
2023-05-21T08:41:23.013Z,20.79
2023-05-21T08:43:56.649Z,20.98
2023-05-21T08:46:25.796Z,21.09
2023-05-21T08:48:56.413Z,21.23
2023-05-21T08:51:25.064Z,21.34
2023-05-21T08:53:53.889Z,21.43
2023-05-21T08:56:22.766Z,21.55
2023-05-21T08:58:53.115Z,21.68
2023-05-21T09:01:24.717Z,21.76
2023-05-21T09:04:04.828Z,21.87
2023-05-21T09:06:38.608Z,21.96
2023-05-21T09:09:15.400Z,22.05
2023-05-21T09:11:43.854Z,22.21
2023-05-21T09:14:12.906Z,22.25
2023-05-21T09:16:41.803Z,22.29
2023-05-21T09:19:11.716Z,22.34
2023-05-21T09:21:40.757Z,22.41
2023-05-21T09:24:11.716Z,22.45
2023-05-21T09:26:43.835Z,22.50
2023-05-21T09:29:14.366Z,22.56
2023-05-21T09:31:45.269Z,22.59
2023-05-21T09:34:15.319Z,22.63
2023-05-21T09:36:44.399Z,22.66
2023-05-21T09:39:16.534Z,22.75
2023-05-21T09:41:45.348Z,22.85
2023-05-21T09:44:14.047Z,22.95
2023-05-21T09:46:43.175Z,23.05
2023-05-21T09:49:24.680Z,23.14
2023-05-21T09:51:57.164Z,23.28
2023-05-21T09:54:26.064Z,23.36
2023-05-21T09:56:54.977Z,23.40
2023-05-21T09:59:23.501Z,23.41
2023-05-21T10:01:53.306Z,23.49
2023-05-21T10:04:24.694Z,23.53
2023-05-21T10:06:53.819Z,23.52
2023-05-21T10:09:22.704Z,23.55
2023-05-21T10:11:55.708Z,23.61
2023-05-21T10:14:27.002Z,23.71
2023-05-21T10:16:55.857Z,23.79
2023-05-21T10:19:26.323Z,23.98
2023-05-21T10:21:57.230Z,24.14
2023-05-21T10:24:26.857Z,24.38
2023-05-21T10:26:55.816Z,24.69
2023-05-21T10:29:24.498Z,24.92
2023-05-21T10:31:53.952Z,25.10
2023-05-21T10:34:24.535Z,25.48
2023-05-21T10:36:57.231Z,25.88
2023-05-21T10:39:26.724Z,26.23
2023-05-21T10:42:04.913Z,26.55
2023-05-21T10:44:45.432Z,26.59
2023-05-21T10:47:46.221Z,26.80
2023-05-21T10:50:35.604Z,27.17
2023-05-21T10:53:15.124Z,27.44
2023-05-21T10:55:55.255Z,27.52
2023-05-21T10:58:40.866Z,27.67
2023-05-21T11:01:09.992Z,27.85
2023-05-21T11:03:39.308Z,27.75
2023-05-21T11:06:08.620Z,27.65
2023-05-21T11:08:39.690Z,27.57
2023-05-21T11:11:08.517Z,27.57
2023-05-21T11:13:49.273Z,27.47
2023-05-21T11:16:18.782Z,27.45
2023-05-21T11:19:01.748Z,26.92
2023-05-21T11:21:33.634Z,26.86
2023-05-21T11:24:10.831Z,26.65
2023-05-21T11:27:04.925Z,26.62
2023-05-21T11:29:47.183Z,26.63
2023-05-21T11:32:17.594Z,26.67
2023-05-21T11:34:47.319Z,26.94
2023-05-21T11:37:30.074Z,27.30
2023-05-21T11:40:17.976Z,27.60
2023-05-21T11:42:51.190Z,27.87
2023-05-21T11:45:20.915Z,27.75
2023-05-21T11:47:50.385Z,28.09
2023-05-21T11:50:19.694Z,28.54
2023-05-21T11:52:49.736Z,28.80
2023-05-21T11:55:25.975Z,29.01
2023-05-21T11:57:55.893Z,28.83
2023-05-21T12:00:24.557Z,28.82
2023-05-21T12:02:55.790Z,28.83
2023-05-21T12:05:27.135Z,29.11
2023-05-21T12:07:56.674Z,29.41
2023-05-21T12:10:26.659Z,29.57
2023-05-21T12:12:57.279Z,29.69
2023-05-21T12:15:27.900Z,29.73
2023-05-21T12:17:57.228Z,29.35
2023-05-21T12:20:28.208Z,29.00
2023-05-21T12:22:58.977Z,29.07
2023-05-21T12:25:29.976Z,28.71
2023-05-21T12:27:59.061Z,28.94
2023-05-21T12:30:27.742Z,29.11
2023-05-21T12:33:00.615Z,29.23
2023-05-21T12:35:29.227Z,29.38
2023-05-21T12:37:57.855Z,29.67
2023-05-21T12:40:38.543Z,29.96
2023-05-21T12:43:08.458Z,30.00
2023-05-21T12:45:39.476Z,30.05
2023-05-21T12:48:08.367Z,30.29
2023-05-21T12:50:40.884Z,29.84
2023-05-21T12:53:10.668Z,29.29
2023-05-21T12:55:41.188Z,29.67
2023-05-21T12:58:09.761Z,29.56
2023-05-21T13:00:38.597Z,28.95
2023-05-21T13:03:07.657Z,28.68
2023-05-21T13:05:36.568Z,28.67
2023-05-21T13:08:05.332Z,28.73
2023-05-21T13:10:33.892Z,28.88
2023-05-21T13:13:03.761Z,28.79
2023-05-21T13:15:32.284Z,28.69
2023-05-21T13:18:01.338Z,28.67
2023-05-21T13:20:30.280Z,28.50
2023-05-21T13:22:58.842Z,28.28
2023-05-21T13:25:29.559Z,28.38
2023-05-21T13:27:59.039Z,27.99
2023-05-21T13:30:29.081Z,27.88
2023-05-21T13:32:57.697Z,27.84
2023-05-21T13:35:26.430Z,28.06
2023-05-21T13:37:55.232Z,28.56
2023-05-21T13:40:24.143Z,28.97
2023-05-21T13:42:52.759Z,29.35
2023-05-21T13:45:24.319Z,29.65
2023-05-21T13:47:54.173Z,29.77
2023-05-21T13:50:22.773Z,29.75
2023-05-21T13:52:51.402Z,30.02
2023-05-21T13:55:20.293Z,30.30
2023-05-21T13:57:48.798Z,30.45
2023-05-21T14:00:17.416Z,30.17
2023-05-21T14:02:46.208Z,30.30
2023-05-21T14:05:16.177Z,30.41
2023-05-21T14:07:45.416Z,30.08
2023-05-21T14:10:13.956Z,29.46
2023-05-21T14:12:42.449Z,29.63
2023-05-21T14:15:11.993Z,29.74
2023-05-21T14:17:42.456Z,29.54
2023-05-21T14:20:12.006Z,29.69
2023-05-21T14:22:41.838Z,29.81
2023-05-21T14:25:10.848Z,29.54
2023-05-21T14:27:39.347Z,29.42
2023-05-21T14:30:09.151Z,29.28
2023-05-21T14:32:37.778Z,29.08
2023-05-21T14:35:06.986Z,29.03
2023-05-21T14:37:35.565Z,28.60
2023-05-21T14:40:07.973Z,28.64
2023-05-21T14:42:36.791Z,28.53
2023-05-21T14:45:18.215Z,28.40
2023-05-21T14:47:48.827Z,28.81
2023-05-21T14:50:18.485Z,28.89
2023-05-21T14:52:47.220Z,29.06
2023-05-21T14:55:18.491Z,29.15
2023-05-21T14:57:47.064Z,28.72
2023-05-21T15:00:16.145Z,28.70
2023-05-21T15:02:45.010Z,28.78
2023-05-21T15:05:13.516Z,28.73
2023-05-21T15:07:42.091Z,28.67
2023-05-21T15:10:11.437Z,28.60
2023-05-21T15:12:42.006Z,28.67
2023-05-21T15:15:12.422Z,28.48
2023-05-21T15:17:40.982Z,28.16
2023-05-21T15:20:10.355Z,28.16
2023-05-21T15:22:38.901Z,28.35
2023-05-21T15:25:08.025Z,28.30
2023-05-21T15:27:36.534Z,28.18
2023-05-21T15:30:07.886Z,28.17
2023-05-21T15:32:36.465Z,28.10
2023-05-21T15:35:05.295Z,27.74
2023-05-21T15:37:34.274Z,27.54
2023-05-21T15:40:03.045Z,27.23
2023-05-21T15:42:31.902Z,27.19
2023-05-21T15:45:00.704Z,27.20
2023-05-21T15:47:30.664Z,27.17
2023-05-21T15:50:00.481Z,27.08
2023-05-21T15:52:29.124Z,27.05
2023-05-21T15:54:57.596Z,26.93
2023-05-21T15:57:26.137Z,26.95
2023-05-21T15:59:54.651Z,26.78
2023-05-21T16:02:23.721Z,26.79
2023-05-21T16:04:53.578Z,26.64
2023-05-21T16:07:24.202Z,26.66
2023-05-21T16:09:52.667Z,26.63
2023-05-21T16:12:21.272Z,26.67
2023-05-21T16:14:50.886Z,26.63
2023-05-21T16:17:19.762Z,26.57
2023-05-21T16:19:48.428Z,26.66
2023-05-21T16:22:20.316Z,26.70
2023-05-21T16:24:49.074Z,26.54
2023-05-21T16:27:17.661Z,26.48
2023-05-21T16:29:46.248Z,26.42
2023-05-21T16:32:15.045Z,26.40
2023-05-21T16:34:43.588Z,26.36
2023-05-21T16:37:12.074Z,26.28
2023-05-21T16:39:42.115Z,26.30
2023-05-21T16:42:10.610Z,26.33
2023-05-21T16:44:39.349Z,26.28
2023-05-21T16:47:07.905Z,26.24
2023-05-21T16:49:36.375Z,26.28
2023-05-21T16:52:05.337Z,26.12
2023-05-21T16:54:34.714Z,26.08
2023-05-21T16:57:04.809Z,26.07
2023-05-21T16:59:33.310Z,25.97
2023-05-21T17:02:01.866Z,25.89
2023-05-21T17:04:30.708Z,25.84
2023-05-21T17:06:59.167Z,25.75
2023-05-21T17:09:27.629Z,25.71
2023-05-21T17:11:56.113Z,25.60
2023-05-21T17:14:34.364Z,25.60
2023-05-21T17:17:03.524Z,25.54
2023-05-21T17:19:32.184Z,25.50
2023-05-21T17:22:00.990Z,25.37
2023-05-21T17:24:29.486Z,25.31
2023-05-21T17:26:58.024Z,25.30
2023-05-21T17:29:27.903Z,25.23
2023-05-21T17:31:56.677Z,25.18
2023-05-21T17:34:29.319Z,25.09
2023-05-21T17:36:59.521Z,25.10
2023-05-21T17:39:28.039Z,25.06
2023-05-21T17:41:57.323Z,25.02
2023-05-21T17:44:27.268Z,24.95
2023-05-21T17:46:56.750Z,24.91
2023-05-21T17:49:25.334Z,24.90
2023-05-21T17:51:54.778Z,24.85
2023-05-21T17:54:23.401Z,24.74
2023-05-21T17:56:52.015Z,24.66
2023-05-21T17:59:21.216Z,24.61
2023-05-21T18:01:51.240Z,24.56
2023-05-21T18:04:19.891Z,24.57
2023-05-21T18:06:48.387Z,24.53
2023-05-21T18:09:16.805Z,24.46
2023-05-21T18:11:45.425Z,24.43
2023-05-21T18:14:13.878Z,24.36
2023-05-21T18:16:42.530Z,24.28
2023-05-21T18:19:13.096Z,24.20
2023-05-21T18:21:41.602Z,24.17
2023-05-21T18:24:10.104Z,24.11
2023-05-21T18:26:38.614Z,24.06
2023-05-21T18:29:07.109Z,24.03
2023-05-21T18:31:35.688Z,24.02
2023-05-21T18:34:04.155Z,23.97
2023-05-21T18:36:38.921Z,23.89
2023-05-21T18:39:08.542Z,23.83
2023-05-21T18:41:37.473Z,23.76
2023-05-21T18:44:07.015Z,23.72
2023-05-21T18:46:35.590Z,23.69
2023-05-21T18:49:04.274Z,23.63
2023-05-21T18:51:34.169Z,23.55
2023-05-21T18:54:02.638Z,23.51
2023-05-21T18:56:31.179Z,23.45
2023-05-21T18:58:59.617Z,23.41
2023-05-21T19:01:28.216Z,23.35
2023-05-21T19:03:56.804Z,23.31
2023-05-21T19:06:27.713Z,23.23
2023-05-21T19:08:57.650Z,23.23
2023-05-21T19:11:30.938Z,23.18
2023-05-21T19:14:00.333Z,23.18
2023-05-21T19:16:28.899Z,23.13
2023-05-21T19:18:57.561Z,23.06
2023-05-21T19:21:26.351Z,23.00
2023-05-21T19:23:54.870Z,22.98
2023-05-21T19:26:24.982Z,22.93
2023-05-21T19:28:54.732Z,22.83
2023-05-21T19:31:23.713Z,22.79
2023-05-21T19:33:52.599Z,22.74
2023-05-21T19:36:22.327Z,22.70
2023-05-21T19:38:51.436Z,22.66
2023-05-21T19:41:22.678Z,22.61
2023-05-21T19:43:52.511Z,22.56
2023-05-21T19:46:21.274Z,22.52
2023-05-21T19:48:50.136Z,22.48
2023-05-21T19:51:18.696Z,22.46
2023-05-21T19:53:47.172Z,22.44
2023-05-21T19:56:15.996Z,22.42
2023-05-21T19:58:47.171Z,22.38
2023-05-21T20:01:17.920Z,22.34
2023-05-21T20:03:46.573Z,22.33
2023-05-21T20:06:19.035Z,22.30
2023-05-21T20:08:47.877Z,22.29
2023-05-21T20:11:16.559Z,22.24
2023-05-21T20:13:48.548Z,22.21
2023-05-21T20:16:19.007Z,22.18
2023-05-21T20:18:47.857Z,22.15
2023-05-21T20:21:18.438Z,22.13
2023-05-21T20:23:47.386Z,22.09
2023-05-21T20:26:16.593Z,22.06
2023-05-21T20:28:45.699Z,22.04
2023-05-21T20:31:14.447Z,22.06
2023-05-21T20:33:44.352Z,22.04
2023-05-21T20:36:15.337Z,22.04
2023-05-21T20:38:45.424Z,22.00
2023-05-21T20:41:14.401Z,21.96
2023-05-21T20:43:45.404Z,21.92
2023-05-21T20:46:13.921Z,21.89
2023-05-21T20:48:43.631Z,21.89
2023-05-21T20:51:13.537Z,21.87
2023-05-21T20:53:42.073Z,21.82
2023-05-21T20:56:11.720Z,21.85
2023-05-21T20:58:40.475Z,21.81
2023-05-21T21:01:10.612Z,21.76
2023-05-21T21:03:41.503Z,21.70
2023-05-21T21:06:10.592Z,21.66
2023-05-21T21:08:41.263Z,21.63
2023-05-21T21:11:09.767Z,21.60
2023-05-21T21:13:38.245Z,21.57
2023-05-21T21:16:07.846Z,21.55
2023-05-21T21:18:36.426Z,21.55
2023-05-21T21:21:05.145Z,21.47
2023-05-21T21:23:33.852Z,21.40
2023-05-21T21:26:03.847Z,21.32
2023-05-21T21:28:32.321Z,21.30
2023-05-21T21:31:00.841Z,21.25
2023-05-21T21:33:29.356Z,21.23
2023-05-21T21:35:57.882Z,21.20
2023-05-21T21:38:26.402Z,21.16
2023-05-21T21:40:55.155Z,21.15
2023-05-21T21:43:25.142Z,21.11
2023-05-21T21:45:53.621Z,21.07
2023-05-21T21:48:22.092Z,21.02
2023-05-21T21:50:50.703Z,21.02
2023-05-21T21:53:19.168Z,20.98
2023-05-21T21:55:47.628Z,20.94
2023-05-21T21:58:16.111Z,20.89
2023-05-21T22:00:46.096Z,20.87
2023-05-21T22:03:15.009Z,20.85
2023-05-21T22:05:43.697Z,20.84
2023-05-21T22:08:12.446Z,20.82
2023-05-21T22:10:41.127Z,20.82
2023-05-21T22:13:09.818Z,20.80
2023-05-21T22:15:38.435Z,20.83
2023-05-21T22:18:10.342Z,20.80
2023-05-21T22:20:39.042Z,20.76
2023-05-21T22:23:07.667Z,20.74
2023-05-21T22:25:36.244Z,20.70
2023-05-21T22:28:04.847Z,20.68
2023-05-21T22:30:33.478Z,20.70
2023-05-21T22:33:02.391Z,20.66
2023-05-21T22:35:32.578Z,20.62
2023-05-21T22:38:01.744Z,20.62
2023-05-21T22:40:30.262Z,20.60
2023-05-21T22:42:59.161Z,20.58
2023-05-21T22:45:28.563Z,20.56
2023-05-21T22:48:01.644Z,20.55
2023-05-21T22:50:32.936Z,20.55
2023-05-21T22:53:02.917Z,20.50
2023-05-21T22:55:31.410Z,20.50
2023-05-21T22:57:59.968Z,20.44
2023-05-21T23:00:28.490Z,20.41
2023-05-21T23:02:57.227Z,20.39
2023-05-21T23:05:25.869Z,20.40
2023-05-21T23:07:54.490Z,20.39
2023-05-21T23:10:24.356Z,20.33
2023-05-21T23:12:52.857Z,20.31
2023-05-21T23:15:21.706Z,20.31
2023-05-21T23:17:50.203Z,20.27
2023-05-21T23:20:18.877Z,20.23
2023-05-21T23:22:47.445Z,20.21
2023-05-21T23:25:15.965Z,20.19
2023-05-21T23:27:46.035Z,20.15
2023-05-21T23:30:14.755Z,20.10
2023-05-21T23:32:43.406Z,20.07
2023-05-21T23:35:14.376Z,20.04
2023-05-21T23:37:43.347Z,19.98
2023-05-21T23:40:13.142Z,19.95
2023-05-21T23:42:41.593Z,19.90
2023-05-21T23:45:12.428Z,19.88
2023-05-21T23:47:41.131Z,19.85
2023-05-21T23:50:10.540Z,19.83
2023-05-21T23:52:39.098Z,19.84
2023-05-21T23:55:08.717Z,19.82
2023-05-21T23:57:37.357Z,19.77
